sensor_id;sensor_type;location;lat;lon;timestamp;P1;durP1;ratioP1;P2;durP2;ratioP2
64459;SDS011;50828;53.756;21.140;2023-12-29T00:02:13;13.50;;;5.90;;
64459;SDS011;50828;53.756;21.140;2023-12-29T00:07:22;10.50;;;5.10;;
64459;SDS011;50828;53.756;21.140;2023-12-29T00:12:30;10.70;;;5.30;;
64459;SDS011;50828;53.756;21.140;2023-12-29T00:17:38;11.80;;;5.20;;
64459;SDS011;50828;53.756;21.140;2023-12-29T00:22:46;11.20;;;5.50;;
64459;SDS011;50828;53.756;21.140;2023-12-29T00:27:55;12.40;;;5.10;;
64459;SDS011;50828;53.756;21.140;2023-12-29T00:33:03;11.60;;;4.90;;
64459;SDS011;50828;53.756;21.140;2023-12-29T00:38:11;10.10;;;4.70;;
64459;SDS011;50828;53.756;21.140;2023-12-29T00:43:18;12.00;;;5.40;;
64459;SDS011;50828;53.756;21.140;2023-12-29T00:48:27;13.10;;;5.60;;
64459;SDS011;50828;53.756;21.140;2023-12-29T00:53:35;10.80;;;5.30;;
64459;SDS011;50828;53.756;21.140;2023-12-29T00:58:43;12.00;;;5.10;;
64459;SDS011;50828;53.756;21.140;2023-12-29T01:03:50;12.90;;;5.60;;
64459;SDS011;50828;53.756;21.140;2023-12-29T01:08:59;12.30;;;5.40;;
64459;SDS011;50828;53.756;21.140;2023-12-29T01:14:07;10.40;;;6.20;;
64459;SDS011;50828;53.756;21.140;2023-12-29T01:19:14;12.40;;;5.80;;
64459;SDS011;50828;53.756;21.140;2023-12-29T01:24:23;13.50;;;6.40;;
64459;SDS011;50828;53.756;21.140;2023-12-29T01:29:42;10.70;;;5.80;;
64459;SDS011;50828;53.756;21.140;2023-12-29T01:34:50;13.70;;;6.20;;
64459;SDS011;50828;53.756;21.140;2023-12-29T01:39:58;13.00;;;6.10;;
64459;SDS011;50828;53.756;21.140;2023-12-29T01:45:07;13.50;;;5.40;;
64459;SDS011;50828;53.756;21.140;2023-12-29T01:50:27;13.60;;;6.20;;
64459;SDS011;50828;53.756;21.140;2023-12-29T01:55:38;14.60;;;5.90;;
64459;SDS011;50828;53.756;21.140;2023-12-29T02:00:47;16.10;;;5.80;;
64459;SDS011;50828;53.756;21.140;2023-12-29T02:05:55;13.40;;;6.80;;
64459;SDS011;50828;53.756;21.140;2023-12-29T02:11:05;13.60;;;5.60;;
64459;SDS011;50828;53.756;21.140;2023-12-29T02:16:15;13.00;;;6.50;;
64459;SDS011;50828;53.756;21.140;2023-12-29T02:21:30;15.40;;;6.40;;
64459;SDS011;50828;53.756;21.140;2023-12-29T02:26:38;15.00;;;5.80;;
64459;SDS011;50828;53.756;21.140;2023-12-29T02:31:53;11.60;;;5.90;;
64459;SDS011;50828;53.756;21.140;2023-12-29T02:37:04;12.30;;;6.10;;
64459;SDS011;50828;53.756;21.140;2023-12-29T02:42:14;17.40;;;6.70;;
64459;SDS011;50828;53.756;21.140;2023-12-29T02:47:21;12.70;;;6.70;;
64459;SDS011;50828;53.756;21.140;2023-12-29T02:52:29;13.40;;;6.10;;
64459;SDS011;50828;53.756;21.140;2023-12-29T02:57:37;14.30;;;6.40;;
64459;SDS011;50828;53.756;21.140;2023-12-29T03:02:45;11.50;;;6.10;;
64459;SDS011;50828;53.756;21.140;2023-12-29T03:07:53;12.40;;;5.90;;
64459;SDS011;50828;53.756;21.140;2023-12-29T03:13:02;14.50;;;6.40;;
64459;SDS011;50828;53.756;21.140;2023-12-29T03:18:10;14.50;;;6.10;;
64459;SDS011;50828;53.756;21.140;2023-12-29T03:23:18;15.00;;;7.00;;
64459;SDS011;50828;53.756;21.140;2023-12-29T03:28:26;14.50;;;7.10;;
64459;SDS011;50828;53.756;21.140;2023-12-29T03:33:34;13.50;;;6.90;;
64459;SDS011;50828;53.756;21.140;2023-12-29T03:38:42;12.50;;;6.20;;
64459;SDS011;50828;53.756;21.140;2023-12-29T03:43:49;13.60;;;7.10;;
64459;SDS011;50828;53.756;21.140;2023-12-29T03:48:57;14.50;;;6.60;;
64459;SDS011;50828;53.756;21.140;2023-12-29T03:54:05;12.10;;;6.60;;
64459;SDS011;50828;53.756;21.140;2023-12-29T03:59:13;18.60;;;7.00;;
64459;SDS011;50828;53.756;21.140;2023-12-29T04:04:20;14.30;;;6.40;;
64459;SDS011;50828;53.756;21.140;2023-12-29T04:09:28;14.20;;;6.70;;
64459;SDS011;50828;53.756;21.140;2023-12-29T04:14:36;14.50;;;6.70;;
64459;SDS011;50828;53.756;21.140;2023-12-29T04:19:45;12.70;;;6.10;;
64459;SDS011;50828;53.756;21.140;2023-12-29T04:24:53;14.00;;;6.50;;
64459;SDS011;50828;53.756;21.140;2023-12-29T04:30:00;15.40;;;6.70;;
64459;SDS011;50828;53.756;21.140;2023-12-29T04:35:09;15.40;;;6.50;;
64459;SDS011;50828;53.756;21.140;2023-12-29T04:40:19;11.50;;;6.10;;
64459;SDS011;50828;53.756;21.140;2023-12-29T04:45:26;13.20;;;5.90;;
64459;SDS011;50828;53.756;21.140;2023-12-29T04:50:34;14.60;;;6.90;;
64459;SDS011;50828;53.756;21.140;2023-12-29T04:55:42;12.30;;;6.10;;
64459;SDS011;50828;53.756;21.140;2023-12-29T05:00:50;12.30;;;6.10;;
64459;SDS011;50828;53.756;21.140;2023-12-29T05:05:58;16.20;;;6.30;;
64459;SDS011;50828;53.756;21.140;2023-12-29T05:11:05;14.80;;;7.50;;
64459;SDS011;50828;53.756;21.140;2023-12-29T05:16:13;12.10;;;6.70;;
64459;SDS011;50828;53.756;21.140;2023-12-29T05:21:21;13.20;;;6.80;;
64459;SDS011;50828;53.756;21.140;2023-12-29T05:26:30;18.90;;;7.20;;
64459;SDS011;50828;53.756;21.140;2023-12-29T05:31:38;12.40;;;6.50;;
64459;SDS011;50828;53.756;21.140;2023-12-29T05:36:46;13.30;;;6.80;;
64459;SDS011;50828;53.756;21.140;2023-12-29T05:41:54;14.00;;;6.70;;
64459;SDS011;50828;53.756;21.140;2023-12-29T05:47:02;12.70;;;7.00;;
64459;SDS011;50828;53.756;21.140;2023-12-29T05:52:10;16.40;;;7.20;;
64459;SDS011;50828;53.756;21.140;2023-12-29T05:57:18;13.00;;;6.20;;
64459;SDS011;50828;53.756;21.140;2023-12-29T06:02:26;14.10;;;7.30;;
64459;SDS011;50828;53.756;21.140;2023-12-29T06:07:33;17.30;;;7.20;;
64459;SDS011;50828;53.756;21.140;2023-12-29T06:12:42;16.60;;;7.30;;
64459;SDS011;50828;53.756;21.140;2023-12-29T06:17:50;12.10;;;6.80;;
64459;SDS011;50828;53.756;21.140;2023-12-29T06:22:58;14.60;;;8.00;;
64459;SDS011;50828;53.756;21.140;2023-12-29T06:28:06;18.30;;;7.60;;
64459;SDS011;50828;53.756;21.140;2023-12-29T06:33:15;20.40;;;7.90;;
64459;SDS011;50828;53.756;21.140;2023-12-29T06:38:25;13.30;;;7.40;;
64459;SDS011;50828;53.756;21.140;2023-12-29T06:43:33;15.50;;;8.10;;
64459;SDS011;50828;53.756;21.140;2023-12-29T06:48:41;18.10;;;8.20;;
64459;SDS011;50828;53.756;21.140;2023-12-29T06:53:49;14.40;;;7.90;;
64459;SDS011;50828;53.756;21.140;2023-12-29T06:58:57;15.80;;;7.10;;
64459;SDS011;50828;53.756;21.140;2023-12-29T07:04:05;10.60;;;6.00;;
64459;SDS011;50828;53.756;21.140;2023-12-29T07:09:15;15.00;;;7.90;;
64459;SDS011;50828;53.756;21.140;2023-12-29T07:14:23;13.80;;;7.60;;
64459;SDS011;50828;53.756;21.140;2023-12-29T07:19:54;11.70;;;6.30;;
64459;SDS011;50828;53.756;21.140;2023-12-29T07:25:02;13.60;;;7.30;;
64459;SDS011;50828;53.756;21.140;2023-12-29T07:30:12;14.80;;;7.70;;
64459;SDS011;50828;53.756;21.140;2023-12-29T07:35:21;13.10;;;7.40;;
64459;SDS011;50828;53.756;21.140;2023-12-29T07:40:29;13.30;;;6.60;;
64459;SDS011;50828;53.756;21.140;2023-12-29T07:45:38;13.30;;;7.50;;
64459;SDS011;50828;53.756;21.140;2023-12-29T07:50:48;17.60;;;7.40;;
64459;SDS011;50828;53.756;21.140;2023-12-29T07:55:55;16.60;;;8.40;;
64459;SDS011;50828;53.756;21.140;2023-12-29T08:01:03;17.60;;;7.90;;
64459;SDS011;50828;53.756;21.140;2023-12-29T08:06:11;13.30;;;7.20;;
64459;SDS011;50828;53.756;21.140;2023-12-29T08:11:18;14.80;;;7.20;;
64459;SDS011;50828;53.756;21.140;2023-12-29T08:16:26;12.80;;;7.60;;
64459;SDS011;50828;53.756;21.140;2023-12-29T08:21:34;14.60;;;7.20;;
64459;SDS011;50828;53.756;21.140;2023-12-29T08:26:45;11.40;;;6.80;;
64459;SDS011;50828;53.756;21.140;2023-12-29T08:31:53;10.80;;;6.90;;
64459;SDS011;50828;53.756;21.140;2023-12-29T08:37:00;12.10;;;6.70;;
64459;SDS011;50828;53.756;21.140;2023-12-29T08:42:08;15.10;;;6.90;;
64459;SDS011;50828;53.756;21.140;2023-12-29T08:47:15;12.40;;;6.90;;
64459;SDS011;50828;53.756;21.140;2023-12-29T08:52:22;12.90;;;6.40;;
64459;SDS011;50828;53.756;21.140;2023-12-29T08:57:30;13.80;;;7.00;;
64459;SDS011;50828;53.756;21.140;2023-12-29T09:02:38;10.80;;;6.50;;
64459;SDS011;50828;53.756;21.140;2023-12-29T09:07:45;12.00;;;6.60;;
64459;SDS011;50828;53.756;21.140;2023-12-29T09:12:53;10.80;;;6.40;;
64459;SDS011;50828;53.756;21.140;2023-12-29T09:18:00;13.00;;;6.00;;
64459;SDS011;50828;53.756;21.140;2023-12-29T09:23:09;9.40;;;5.80;;
64459;SDS011;50828;53.756;21.140;2023-12-29T09:28:16;11.70;;;6.40;;
64459;SDS011;50828;53.756;21.140;2023-12-29T09:33:24;10.20;;;6.00;;
64459;SDS011;50828;53.756;21.140;2023-12-29T09:38:32;9.60;;;5.80;;
64459;SDS011;50828;53.756;21.140;2023-12-29T09:43:39;12.10;;;5.60;;
64459;SDS011;50828;53.756;21.140;2023-12-29T09:48:48;9.70;;;5.50;;
64459;SDS011;50828;53.756;21.140;2023-12-29T09:54:01;10.70;;;5.70;;
64459;SDS011;50828;53.756;21.140;2023-12-29T09:59:10;8.70;;;5.30;;
64459;SDS011;50828;53.756;21.140;2023-12-29T10:04:20;13.90;;;5.50;;
64459;SDS011;50828;53.756;21.140;2023-12-29T10:09:27;9.90;;;4.70;;
64459;SDS011;50828;53.756;21.140;2023-12-29T10:14:37;11.30;;;5.40;;
64459;SDS011;50828;53.756;21.140;2023-12-29T10:19:53;12.20;;;4.70;;
64459;SDS011;50828;53.756;21.140;2023-12-29T10:25:09;9.30;;;5.10;;
64459;SDS011;50828;53.756;21.140;2023-12-29T10:30:17;8.60;;;5.20;;
64459;SDS011;50828;53.756;21.140;2023-12-29T10:35:37;8.30;;;4.40;;
64459;SDS011;50828;53.756;21.140;2023-12-29T10:40:47;10.00;;;4.90;;
64459;SDS011;50828;53.756;21.140;2023-12-29T10:46:00;8.40;;;4.90;;
64459;SDS011;50828;53.756;21.140;2023-12-29T10:51:13;11.80;;;5.00;;
64459;SDS011;50828;53.756;21.140;2023-12-29T10:56:21;8.70;;;4.60;;
64459;SDS011;50828;53.756;21.140;2023-12-29T11:01:28;9.70;;;4.90;;
64459;SDS011;50828;53.756;21.140;2023-12-29T11:06:43;7.50;;;4.60;;
64459;SDS011;50828;53.756;21.140;2023-12-29T11:11:52;9.40;;;5.20;;
64459;SDS011;50828;53.756;21.140;2023-12-29T11:17:00;11.20;;;5.30;;
64459;SDS011;50828;53.756;21.140;2023-12-29T11:22:08;10.30;;;4.70;;
64459;SDS011;50828;53.756;21.140;2023-12-29T11:27:17;8.80;;;5.50;;
64459;SDS011;50828;53.756;21.140;2023-12-29T11:32:27;11.50;;;5.60;;
64459;SDS011;50828;53.756;21.140;2023-12-29T11:37:47;9.10;;;5.60;;
64459;SDS011;50828;53.756;21.140;2023-12-29T11:43:04;10.60;;;5.50;;
64459;SDS011;50828;53.756;21.140;2023-12-29T11:48:52;10.30;;;4.40;;
64459;SDS011;50828;53.756;21.140;2023-12-29T11:54:02;10.90;;;5.20;;
64459;SDS011;50828;53.756;21.140;2023-12-29T11:59:17;11.00;;;5.30;;
64459;SDS011;50828;53.756;21.140;2023-12-29T12:04:38;9.50;;;5.30;;
64459;SDS011;50828;53.756;21.140;2023-12-29T12:09:48;10.90;;;5.30;;
64459;SDS011;50828;53.756;21.140;2023-12-29T12:14:57;11.70;;;5.50;;
64459;SDS011;50828;53.756;21.140;2023-12-29T12:20:07;10.60;;;5.30;;
64459;SDS011;50828;53.756;21.140;2023-12-29T12:25:15;10.40;;;5.20;;
64459;SDS011;50828;53.756;21.140;2023-12-29T12:30:23;10.20;;;5.00;;
64459;SDS011;50828;53.756;21.140;2023-12-29T12:35:31;8.10;;;4.40;;
64459;SDS011;50828;53.756;21.140;2023-12-29T12:40:38;11.20;;;4.50;;
64459;SDS011;50828;53.756;21.140;2023-12-29T12:45:48;11.30;;;4.10;;
64459;SDS011;50828;53.756;21.140;2023-12-29T12:51:04;8.60;;;4.30;;
64459;SDS011;50828;53.756;21.140;2023-12-29T12:56:12;8.80;;;4.10;;
64459;SDS011;50828;53.756;21.140;2023-12-29T13:01:20;7.80;;;3.90;;
64459;SDS011;50828;53.756;21.140;2023-12-29T13:06:28;8.20;;;3.80;;
64459;SDS011;50828;53.756;21.140;2023-12-29T13:11:36;6.90;;;3.60;;
64459;SDS011;50828;53.756;21.140;2023-12-29T13:16:44;6.80;;;3.60;;
64459;SDS011;50828;53.756;21.140;2023-12-29T13:21:53;5.40;;;3.30;;
64459;SDS011;50828;53.756;21.140;2023-12-29T13:27:04;7.00;;;3.10;;
64459;SDS011;50828;53.756;21.140;2023-12-29T13:32:14;8.00;;;3.40;;
64459;SDS011;50828;53.756;21.140;2023-12-29T13:37:33;4.60;;;2.60;;
64459;SDS011;50828;53.756;21.140;2023-12-29T13:42:53;5.40;;;2.60;;
64459;SDS011;50828;53.756;21.140;2023-12-29T13:48:07;5.80;;;3.20;;
64459;SDS011;50828;53.756;21.140;2023-12-29T13:53:19;7.90;;;3.30;;
64459;SDS011;50828;53.756;21.140;2023-12-29T13:58:27;6.90;;;2.80;;
64459;SDS011;50828;53.756;21.140;2023-12-29T14:03:37;6.00;;;3.10;;
64459;SDS011;50828;53.756;21.140;2023-12-29T14:08:49;6.50;;;3.00;;
64459;SDS011;50828;53.756;21.140;2023-12-29T14:13:56;5.70;;;2.90;;
64459;SDS011;50828;53.756;21.140;2023-12-29T14:19:04;10.10;;;3.50;;
64459;SDS011;50828;53.756;21.140;2023-12-29T14:24:12;6.90;;;2.70;;
64459;SDS011;50828;53.756;21.140;2023-12-29T14:29:21;9.20;;;3.20;;
64459;SDS011;50828;53.756;21.140;2023-12-29T14:34:29;7.00;;;3.20;;
64459;SDS011;50828;53.756;21.140;2023-12-29T14:39:37;8.30;;;3.80;;
64459;SDS011;50828;53.756;21.140;2023-12-29T14:44:46;7.70;;;3.10;;
64459;SDS011;50828;53.756;21.140;2023-12-29T14:49:54;6.90;;;3.30;;
64459;SDS011;50828;53.756;21.140;2023-12-29T14:55:01;6.20;;;3.30;;
64459;SDS011;50828;53.756;21.140;2023-12-29T15:00:11;5.50;;;3.10;;
64459;SDS011;50828;53.756;21.140;2023-12-29T15:05:20;7.10;;;3.00;;
64459;SDS011;50828;53.756;21.140;2023-12-29T15:10:28;9.70;;;4.00;;
64459;SDS011;50828;53.756;21.140;2023-12-29T15:15:35;7.50;;;3.00;;
64459;SDS011;50828;53.756;21.140;2023-12-29T15:20:43;5.20;;;2.90;;
64459;SDS011;50828;53.756;21.140;2023-12-29T15:25:50;8.10;;;3.50;;
64459;SDS011;50828;53.756;21.140;2023-12-29T15:30:59;7.40;;;2.90;;
64459;SDS011;50828;53.756;21.140;2023-12-29T15:36:07;7.30;;;3.20;;
64459;SDS011;50828;53.756;21.140;2023-12-29T15:41:24;6.20;;;3.10;;
64459;SDS011;50828;53.756;21.140;2023-12-29T15:46:31;7.80;;;3.60;;
64459;SDS011;50828;53.756;21.140;2023-12-29T15:51:40;6.60;;;3.80;;
64459;SDS011;50828;53.756;21.140;2023-12-29T15:56:47;8.30;;;4.00;;
64459;SDS011;50828;53.756;21.140;2023-12-29T16:01:56;6.10;;;3.20;;
64459;SDS011;50828;53.756;21.140;2023-12-29T16:07:04;6.70;;;3.40;;
64459;SDS011;50828;53.756;21.140;2023-12-29T16:12:11;6.40;;;3.30;;
64459;SDS011;50828;53.756;21.140;2023-12-29T16:17:19;7.80;;;3.30;;
64459;SDS011;50828;53.756;21.140;2023-12-29T16:22:26;6.90;;;3.50;;
64459;SDS011;50828;53.756;21.140;2023-12-29T16:27:34;7.60;;;3.10;;
64459;SDS011;50828;53.756;21.140;2023-12-29T16:32:41;8.10;;;4.00;;
64459;SDS011;50828;53.756;21.140;2023-12-29T16:37:50;8.60;;;3.00;;
64459;SDS011;50828;53.756;21.140;2023-12-29T16:42:58;4.70;;;2.90;;
64459;SDS011;50828;53.756;21.140;2023-12-29T16:48:06;5.40;;;2.90;;
64459;SDS011;50828;53.756;21.140;2023-12-29T16:53:14;7.60;;;3.40;;
64459;SDS011;50828;53.756;21.140;2023-12-29T16:58:21;6.40;;;2.80;;
64459;SDS011;50828;53.756;21.140;2023-12-29T17:03:29;8.00;;;2.80;;
64459;SDS011;50828;53.756;21.140;2023-12-29T17:08:37;9.10;;;3.10;;
64459;SDS011;50828;53.756;21.140;2023-12-29T17:13:44;6.80;;;2.90;;
64459;SDS011;50828;53.756;21.140;2023-12-29T17:18:51;5.20;;;3.00;;
64459;SDS011;50828;53.756;21.140;2023-12-29T17:23:59;8.40;;;3.50;;
64459;SDS011;50828;53.756;21.140;2023-12-29T17:29:06;6.60;;;2.80;;
64459;SDS011;50828;53.756;21.140;2023-12-29T17:34:14;5.70;;;2.90;;
64459;SDS011;50828;53.756;21.140;2023-12-29T17:39:21;7.90;;;3.20;;
64459;SDS011;50828;53.756;21.140;2023-12-29T17:44:29;11.30;;;3.20;;
64459;SDS011;50828;53.756;21.140;2023-12-29T17:49:36;7.50;;;3.40;;
64459;SDS011;50828;53.756;21.140;2023-12-29T17:54:46;6.20;;;3.10;;
64459;SDS011;50828;53.756;21.140;2023-12-29T17:59:54;12.30;;;4.10;;
64459;SDS011;50828;53.756;21.140;2023-12-29T18:05:02;7.80;;;3.50;;
64459;SDS011;50828;53.756;21.140;2023-12-29T18:10:10;7.20;;;3.00;;
64459;SDS011;50828;53.756;21.140;2023-12-29T18:15:18;5.80;;;2.90;;
64459;SDS011;50828;53.756;21.140;2023-12-29T18:20:26;7.20;;;2.90;;
64459;SDS011;50828;53.756;21.140;2023-12-29T18:25:33;6.80;;;2.90;;
64459;SDS011;50828;53.756;21.140;2023-12-29T18:30:41;5.80;;;2.70;;
64459;SDS011;50828;53.756;21.140;2023-12-29T18:35:49;5.40;;;2.60;;
64459;SDS011;50828;53.756;21.140;2023-12-29T18:40:59;6.50;;;3.20;;
64459;SDS011;50828;53.756;21.140;2023-12-29T18:46:12;7.20;;;3.50;;
64459;SDS011;50828;53.756;21.140;2023-12-29T18:51:20;7.10;;;3.30;;
64459;SDS011;50828;53.756;21.140;2023-12-29T18:56:28;7.00;;;3.20;;
64459;SDS011;50828;53.756;21.140;2023-12-29T19:01:36;6.60;;;3.00;;
64459;SDS011;50828;53.756;21.140;2023-12-29T19:06:49;7.60;;;2.90;;
64459;SDS011;50828;53.756;21.140;2023-12-29T19:11:56;5.60;;;2.90;;
64459;SDS011;50828;53.756;21.140;2023-12-29T19:17:05;8.90;;;3.30;;
64459;SDS011;50828;53.756;21.140;2023-12-29T19:22:15;8.10;;;3.10;;
64459;SDS011;50828;53.756;21.140;2023-12-29T19:27:23;7.70;;;3.50;;
64459;SDS011;50828;53.756;21.140;2023-12-29T19:32:31;7.00;;;4.10;;
64459;SDS011;50828;53.756;21.140;2023-12-29T19:37:39;7.00;;;3.30;;
64459;SDS011;50828;53.756;21.140;2023-12-29T19:42:47;6.00;;;3.00;;
64459;SDS011;50828;53.756;21.140;2023-12-29T19:47:55;7.20;;;3.30;;
64459;SDS011;50828;53.756;21.140;2023-12-29T19:53:05;8.20;;;3.30;;
64459;SDS011;50828;53.756;21.140;2023-12-29T19:58:15;5.00;;;2.90;;
64459;SDS011;50828;53.756;21.140;2023-12-29T20:03:23;6.40;;;2.70;;
64459;SDS011;50828;53.756;21.140;2023-12-29T20:08:30;6.20;;;2.40;;
64459;SDS011;50828;53.756;21.140;2023-12-29T20:13:38;5.50;;;1.90;;
64459;SDS011;50828;53.756;21.140;2023-12-29T20:18:46;4.30;;;1.80;;
64459;SDS011;50828;53.756;21.140;2023-12-29T20:23:54;3.10;;;1.60;;
64459;SDS011;50828;53.756;21.140;2023-12-29T20:29:02;3.50;;;1.70;;
64459;SDS011;50828;53.756;21.140;2023-12-29T20:34:11;4.70;;;1.90;;
64459;SDS011;50828;53.756;21.140;2023-12-29T20:39:19;4.80;;;1.60;;
64459;SDS011;50828;53.756;21.140;2023-12-29T20:44:27;6.30;;;1.80;;
64459;SDS011;50828;53.756;21.140;2023-12-29T20:49:34;3.00;;;1.30;;
64459;SDS011;50828;53.756;21.140;2023-12-29T20:54:42;5.30;;;1.50;;
64459;SDS011;50828;53.756;21.140;2023-12-29T20:59:50;5.60;;;1.50;;
64459;SDS011;50828;53.756;21.140;2023-12-29T21:10:10;2.20;;;1.10;;
64459;SDS011;50828;53.756;21.140;2023-12-29T21:15:18;3.60;;;1.30;;
64459;SDS011;50828;53.756;21.140;2023-12-29T21:20:25;4.80;;;1.40;;
64459;SDS011;50828;53.756;21.140;2023-12-29T21:25:32;2.90;;;1.20;;
64459;SDS011;50828;53.756;21.140;2023-12-29T21:30:40;2.60;;;1.30;;
64459;SDS011;50828;53.756;21.140;2023-12-29T21:35:48;2.70;;;1.50;;
64459;SDS011;50828;53.756;21.140;2023-12-29T21:40:57;4.00;;;1.20;;
64459;SDS011;50828;53.756;21.140;2023-12-29T21:46:07;3.40;;;1.40;;
64459;SDS011;50828;53.756;21.140;2023-12-29T21:51:15;3.50;;;1.10;;
64459;SDS011;50828;53.756;21.140;2023-12-29T22:01:33;2.30;;;0.90;;
64459;SDS011;50828;53.756;21.140;2023-12-29T22:06:43;2.20;;;0.90;;
64459;SDS011;50828;53.756;21.140;2023-12-29T22:11:51;2.60;;;1.10;;
64459;SDS011;50828;53.756;21.140;2023-12-29T22:16:59;3.50;;;1.10;;
64459;SDS011;50828;53.756;21.140;2023-12-29T22:22:07;2.00;;;0.90;;
64459;SDS011;50828;53.756;21.140;2023-12-29T22:27:15;2.50;;;0.90;;
64459;SDS011;50828;53.756;21.140;2023-12-29T22:32:22;1.30;;;0.80;;
64459;SDS011;50828;53.756;21.140;2023-12-29T22:37:30;2.60;;;0.90;;
64459;SDS011;50828;53.756;21.140;2023-12-29T22:42:38;2.70;;;0.90;;
64459;SDS011;50828;53.756;21.140;2023-12-29T22:47:48;2.10;;;0.90;;
64459;SDS011;50828;53.756;21.140;2023-12-29T22:52:56;3.20;;;1.10;;
64459;SDS011;50828;53.756;21.140;2023-12-29T22:58:04;3.40;;;0.80;;
64459;SDS011;50828;53.756;21.140;2023-12-29T23:03:13;0.90;;;0.70;;
64459;SDS011;50828;53.756;21.140;2023-12-29T23:08:20;2.90;;;1.10;;
64459;SDS011;50828;53.756;21.140;2023-12-29T23:13:28;1.90;;;0.90;;
64459;SDS011;50828;53.756;21.140;2023-12-29T23:18:36;1.60;;;1.10;;
64459;SDS011;50828;53.756;21.140;2023-12-29T23:23:47;2.60;;;1.00;;
64459;SDS011;50828;53.756;21.140;2023-12-29T23:28:54;2.80;;;1.10;;
64459;SDS011;50828;53.756;21.140;2023-12-29T23:34:02;2.50;;;1.30;;
64459;SDS011;50828;53.756;21.140;2023-12-29T23:39:09;2.70;;;1.60;;
64459;SDS011;50828;53.756;21.140;2023-12-29T23:44:17;3.60;;;2.00;;
64459;SDS011;50828;53.756;21.140;2023-12-29T23:49:25;2.80;;;1.90;;
64459;SDS011;50828;53.756;21.140;2023-12-29T23:54:34;4.70;;;2.30;;
64459;SDS011;50828;53.756;21.140;2023-12-29T23:59:42;4.60;;;2.10;;
